RYR19D LEVC-GCTS
Flight info
| Callsign | RYR19D |
|---|---|
| Flight time | 3h 8m |
| Altitude | 35000 |
| Route | ASTRO M985 MGA N851 BRIKE/N0449F370 N851 VJF L82 RUNAX UL82 IBALU UN857 TERTO |
| Aircraft | B738/M-SDE2E3FGHIRWXY/LB1 |
Departure
| Time | 2026-05-08 14:37 |
|---|---|
| Airport | Valencia Airport (LEVC) |
Arrival
| Time | 2026-05-08 17:46 |
|---|---|
| Airport | Tenerife Sur Airport (GCTS) |
| Time | Latitude | Longitude | Altitude | Speed | Heading |
|---|---|---|---|---|---|
| 2026-05-08 14:19 | 39.49293 | -0.47570 | 213 ft | 0 kts | 116° |
| 2026-05-08 14:29 | 39.49300 | -0.47587 | 211 ft | 4 kts | 128° |
| 2026-05-08 14:30 | 39.49320 | -0.47607 | 214 ft | 4 kts | 172° |
| 2026-05-08 14:30 | 39.49339 | -0.47605 | 214 ft | 0 kts | 206° |
| 2026-05-08 14:32 | 39.49331 | -0.47610 | 212 ft | 4 kts | 205° |
| 2026-05-08 14:33 | 39.49277 | -0.47643 | 212 ft | 13 kts | 207° |
| 2026-05-08 14:33 | 39.49173 | -0.47709 | 213 ft | 20 kts | 205° |
| 2026-05-08 14:33 | 39.49033 | -0.47815 | 214 ft | 25 kts | 241° |
| 2026-05-08 14:33 | 39.49077 | -0.48018 | 215 ft | 23 kts | 296° |
| 2026-05-08 14:34 | 39.49148 | -0.48203 | 214 ft | 23 kts | 296° |
| 2026-05-08 14:34 | 39.49196 | -0.48331 | 212 ft | 25 kts | 296° |
| 2026-05-08 14:34 | 39.49276 | -0.48541 | 210 ft | 27 kts | 296° |
| 2026-05-08 14:34 | 39.49364 | -0.48771 | 208 ft | 30 kts | 296° |
| 2026-05-08 14:35 | 39.49489 | -0.49101 | 210 ft | 31 kts | 296° |
| 2026-05-08 14:35 | 39.49553 | -0.49268 | 212 ft | 30 kts | 296° |
| 2026-05-08 14:35 | 39.49670 | -0.49576 | 213 ft | 28 kts | 296° |
| 2026-05-08 14:35 | 39.49727 | -0.49724 | 214 ft | 27 kts | 296° |
| 2026-05-08 14:36 | 39.49796 | -0.49926 | 209 ft | 21 kts | 266° |
| 2026-05-08 14:36 | 39.49689 | -0.50021 | 220 ft | 18 kts | 206° |
| 2026-05-08 14:36 | 39.49619 | -0.49967 | 211 ft | 0 kts | 115° |
| 2026-05-08 14:36 | 39.49618 | -0.49966 | 211 ft | 2 kts | 115° |
| 2026-05-08 14:37 | 39.49515 | -0.49694 | 212 ft | 69 kts | 116° |
| 2026-05-08 14:37 | 39.49204 | -0.48878 | 215 ft | 131 kts | 116° |
| 2026-05-08 14:37 | 39.48741 | -0.47634 | 284 ft | 175 kts | 115° |
| 2026-05-08 14:37 | 39.48160 | -0.46215 | 1089 ft | 174 kts | 116° |
| 2026-05-08 14:38 | 39.47585 | -0.44852 | 1981 ft | 176 kts | 117° |
| 2026-05-08 14:38 | 39.46898 | -0.43407 | 2389 ft | 203 kts | 131° |
| 2026-05-08 14:38 | 39.45664 | -0.42310 | 2609 ft | 229 kts | 153° |
| 2026-05-08 14:38 | 39.44358 | -0.41072 | 2921 ft | 250 kts | 128° |
| 2026-05-08 14:39 | 39.43447 | -0.39035 | 3442 ft | 266 kts | 117° |
| 2026-05-08 14:39 | 39.42573 | -0.36946 | 4260 ft | 269 kts | 122° |
| 2026-05-08 14:39 | 39.41543 | -0.34896 | 5040 ft | 276 kts | 125° |
| 2026-05-08 14:39 | 39.40454 | -0.32824 | 5868 ft | 278 kts | 126° |
| 2026-05-08 14:40 | 39.39215 | -0.30929 | 6707 ft | 277 kts | 148° |
| 2026-05-08 14:40 | 39.37436 | -0.30151 | 7486 ft | 268 kts | 184° |
| 2026-05-08 14:40 | 39.35679 | -0.30809 | 8261 ft | 267 kts | 216° |
| 2026-05-08 14:40 | 39.34378 | -0.32522 | 9045 ft | 267 kts | 237° |
| 2026-05-08 14:41 | 39.33488 | -0.34619 | 9868 ft | 269 kts | 243° |
| 2026-05-08 14:41 | 39.32565 | -0.36771 | 10405 ft | 280 kts | 242° |
| 2026-05-08 14:41 | 39.31681 | -0.39134 | 10583 ft | 304 kts | 248° |
| 2026-05-08 14:41 | 39.30949 | -0.41797 | 10760 ft | 326 kts | 253° |
| 2026-05-08 14:42 | 39.30441 | -0.44752 | 10918 ft | 348 kts | 260° |
| 2026-05-08 14:42 | 39.30226 | -0.47949 | 11097 ft | 367 kts | 268° |
| 2026-05-08 14:42 | 39.30357 | -0.51285 | 11510 ft | 377 kts | 275° |
| 2026-05-08 14:42 | 39.30859 | -0.54627 | 12187 ft | 380 kts | 282° |
| 2026-05-08 14:43 | 39.31732 | -0.57865 | 12889 ft | 384 kts | 290° |
| 2026-05-08 14:43 | 39.32974 | -0.60939 | 13527 ft | 390 kts | 298° |
| 2026-05-08 14:43 | 39.34575 | -0.63806 | 14031 ft | 399 kts | 306° |
| 2026-05-08 14:43 | 39.36284 | -0.66635 | 14523 ft | 398 kts | 295° |
| 2026-05-08 14:44 | 39.37076 | -0.69979 | 15071 ft | 389 kts | 271° |
| 2026-05-08 14:44 | 39.36692 | -0.73384 | 15706 ft | 384 kts | 248° |
| 2026-05-08 14:44 | 39.35246 | -0.76265 | 16281 ft | 387 kts | 225° |
| 2026-05-08 14:44 | 39.32979 | -0.78152 | 16845 ft | 395 kts | 206° |
| 2026-05-08 14:45 | 39.30518 | -0.79705 | 17322 ft | 394 kts | 219° |
| 2026-05-08 14:45 | 39.28613 | -0.82218 | 17809 ft | 392 kts | 233° |
| 2026-05-08 14:45 | 39.26952 | -0.85022 | 18322 ft | 394 kts | 234° |
| 2026-05-08 14:45 | 39.25305 | -0.87861 | 18752 ft | 396 kts | 234° |
| 2026-05-08 14:46 | 39.23637 | -0.90694 | 19182 ft | 398 kts | 234° |
| 2026-05-08 14:46 | 39.21958 | -0.93522 | 19638 ft | 399 kts | 233° |
| 2026-05-08 14:46 | 39.20257 | -0.96382 | 20058 ft | 401 kts | 234° |
| 2026-05-08 14:46 | 39.18551 | -0.99246 | 20465 ft | 404 kts | 233° |
| 2026-05-08 14:47 | 39.16837 | -1.02125 | 20878 ft | 406 kts | 234° |
| 2026-05-08 14:47 | 39.15114 | -1.05012 | 21321 ft | 407 kts | 233° |
| 2026-05-08 14:47 | 39.13385 | -1.07905 | 21698 ft | 409 kts | 233° |
| 2026-05-08 14:47 | 39.11649 | -1.10820 | 22053 ft | 411 kts | 234° |
| 2026-05-08 14:48 | 39.09907 | -1.13745 | 22451 ft | 412 kts | 234° |
| 2026-05-08 14:48 | 39.08160 | -1.16673 | 22851 ft | 413 kts | 233° |
| 2026-05-08 14:48 | 39.06403 | -1.19614 | 23190 ft | 415 kts | 233° |
| 2026-05-08 14:48 | 39.04637 | -1.22565 | 23529 ft | 418 kts | 234° |
| 2026-05-08 14:49 | 39.02858 | -1.25533 | 23799 ft | 420 kts | 233° |
| 2026-05-08 14:49 | 39.01073 | -1.28511 | 24117 ft | 421 kts | 234° |
| 2026-05-08 14:49 | 38.99288 | -1.31489 | 24447 ft | 421 kts | 234° |
| 2026-05-08 14:49 | 38.97497 | -1.34476 | 24748 ft | 422 kts | 234° |
| 2026-05-08 14:50 | 38.95700 | -1.37472 | 25021 ft | 424 kts | 234° |
| 2026-05-08 14:50 | 38.93899 | -1.40473 | 25294 ft | 425 kts | 234° |
| 2026-05-08 14:50 | 38.92093 | -1.43478 | 25557 ft | 426 kts | 234° |
| 2026-05-08 14:50 | 38.90277 | -1.46498 | 25823 ft | 427 kts | 234° |
| 2026-05-08 14:51 | 38.88461 | -1.49514 | 26057 ft | 428 kts | 234° |
| 2026-05-08 14:51 | 38.86641 | -1.52535 | 26312 ft | 427 kts | 234° |
| 2026-05-08 14:51 | 38.84828 | -1.55540 | 26692 ft | 424 kts | 233° |
| 2026-05-08 14:51 | 38.83031 | -1.58516 | 27073 ft | 421 kts | 234° |
| 2026-05-08 14:52 | 38.81265 | -1.61438 | 27383 ft | 420 kts | 234° |
| 2026-05-08 14:52 | 38.77670 | -1.67381 | 28036 ft | 417 kts | 234° |
| 2026-05-08 14:52 | 38.75895 | -1.70312 | 28393 ft | 415 kts | 234° |
| 2026-05-08 14:53 | 38.74127 | -1.73228 | 28750 ft | 414 kts | 234° |
| 2026-05-08 14:53 | 38.72363 | -1.76133 | 29096 ft | 412 kts | 234° |
| 2026-05-08 14:53 | 38.70607 | -1.79022 | 29440 ft | 411 kts | 234° |
| 2026-05-08 14:53 | 38.68853 | -1.81902 | 29799 ft | 409 kts | 234° |
| 2026-05-08 14:54 | 38.67107 | -1.84765 | 30137 ft | 407 kts | 234° |
| 2026-05-08 14:54 | 38.65366 | -1.87617 | 30473 ft | 405 kts | 234° |
| 2026-05-08 14:54 | 38.63641 | -1.90443 | 30847 ft | 400 kts | 235° |
| 2026-05-08 14:54 | 38.61942 | -1.93224 | 31365 ft | 393 kts | 235° |
| 2026-05-08 14:55 | 38.60279 | -1.95942 | 31925 ft | 385 kts | 235° |
| 2026-05-08 14:55 | 38.58639 | -1.98622 | 32346 ft | 381 kts | 236° |
| 2026-05-08 14:55 | 38.57014 | -2.01279 | 32611 ft | 379 kts | 236° |
| 2026-05-08 14:55 | 38.55390 | -2.03936 | 32810 ft | 379 kts | 236° |
| 2026-05-08 14:56 | 38.53791 | -2.06541 | 33124 ft | 376 kts | 236° |
| 2026-05-08 14:56 | 38.52188 | -2.09149 | 33526 ft | 371 kts | 236° |
| 2026-05-08 14:56 | 38.50608 | -2.11722 | 33942 ft | 366 kts | 236° |
| 2026-05-08 14:56 | 38.49042 | -2.14271 | 34184 ft | 365 kts | 236° |
| 2026-05-08 14:57 | 38.47471 | -2.16831 | 34265 ft | 367 kts | 236° |
| 2026-05-08 14:57 | 38.45893 | -2.19402 | 34378 ft | 368 kts | 236° |
| 2026-05-08 14:57 | 38.44312 | -2.21974 | 34546 ft | 368 kts | 236° |
| 2026-05-08 14:57 | 38.42730 | -2.24544 | 34705 ft | 369 kts | 236° |
| 2026-05-08 14:58 | 38.41146 | -2.27118 | 34813 ft | 370 kts | 236° |
| 2026-05-08 14:58 | 38.39560 | -2.29692 | 34949 ft | 368 kts | 235° |
| 2026-05-08 14:58 | 38.37984 | -2.32245 | 34943 ft | 365 kts | 235° |
| 2026-05-08 14:59 | 38.34721 | -2.37220 | 34961 ft | 369 kts | 231° |
| 2026-05-08 14:59 | 38.29380 | -2.44361 | 34954 ft | 372 kts | 231° |
| 2026-05-08 15:00 | 38.25810 | -2.49123 | 34945 ft | 370 kts | 231° |
| 2026-05-08 15:00 | 38.22275 | -2.53851 | 34955 ft | 366 kts | 231° |
| 2026-05-08 15:01 | 38.18794 | -2.58523 | 34930 ft | 365 kts | 231° |
| 2026-05-08 15:01 | 38.15266 | -2.63218 | 34941 ft | 369 kts | 231° |
| 2026-05-08 15:02 | 38.11709 | -2.67962 | 34955 ft | 372 kts | 231° |
| 2026-05-08 15:02 | 38.08131 | -2.72731 | 34956 ft | 373 kts | 231° |
| 2026-05-08 15:03 | 38.04553 | -2.77491 | 34944 ft | 372 kts | 231° |
| 2026-05-08 15:03 | 38.01009 | -2.82191 | 34918 ft | 370 kts | 231° |
| 2026-05-08 15:04 | 37.97444 | -2.86927 | 34942 ft | 373 kts | 231° |
| 2026-05-08 15:04 | 37.93855 | -2.91669 | 34930 ft | 373 kts | 231° |
| 2026-05-08 15:05 | 37.90261 | -2.96392 | 34906 ft | 371 kts | 230° |
| 2026-05-08 15:05 | 37.86676 | -3.01094 | 34920 ft | 371 kts | 230° |
| 2026-05-08 15:06 | 37.83085 | -3.05813 | 34930 ft | 373 kts | 230° |
| 2026-05-08 15:06 | 37.79546 | -3.10454 | 35171 ft | 361 kts | 230° |
| 2026-05-08 15:07 | 37.77807 | -3.12733 | 35413 ft | 360 kts | 230° |
| 2026-05-08 15:07 | 37.76072 | -3.15004 | 35641 ft | 358 kts | 230° |
| 2026-05-08 15:07 | 37.74341 | -3.17266 | 35885 ft | 357 kts | 230° |
| 2026-05-08 15:07 | 37.72621 | -3.19514 | 36143 ft | 355 kts | 230° |
| 2026-05-08 15:08 | 37.70907 | -3.21759 | 36386 ft | 354 kts | 230° |
| 2026-05-08 15:08 | 37.69779 | -3.23238 | 36558 ft | 353 kts | 230° |
| 2026-05-08 15:08 | 37.67509 | -3.26214 | 36881 ft | 351 kts | 230° |
| 2026-05-08 15:08 | 37.65811 | -3.28438 | 36869 ft | 353 kts | 230° |
| 2026-05-08 15:09 | 37.62377 | -3.32935 | 36918 ft | 358 kts | 230° |
| 2026-05-08 15:09 | 37.58890 | -3.37493 | 36921 ft | 363 kts | 230° |
| 2026-05-08 15:10 | 37.55362 | -3.42096 | 36915 ft | 367 kts | 230° |
| 2026-05-08 15:10 | 37.51805 | -3.46729 | 36920 ft | 369 kts | 230° |
| 2026-05-08 15:11 | 37.48261 | -3.51337 | 36905 ft | 368 kts | 230° |
| 2026-05-08 15:11 | 37.44699 | -3.55966 | 36912 ft | 367 kts | 230° |
| 2026-05-08 15:12 | 37.41139 | -3.60585 | 36866 ft | 367 kts | 230° |
| 2026-05-08 15:12 | 37.37575 | -3.65151 | 36917 ft | 365 kts | 230° |
| 2026-05-08 15:13 | 37.34050 | -3.69729 | 36908 ft | 366 kts | 230° |
| 2026-05-08 15:13 | 37.30507 | -3.74330 | 36916 ft | 367 kts | 230° |
| 2026-05-08 15:14 | 37.26941 | -3.78936 | 36931 ft | 368 kts | 230° |
| 2026-05-08 15:14 | 37.23352 | -3.83522 | 36959 ft | 368 kts | 229° |
| 2026-05-08 15:15 | 37.19789 | -3.88093 | 36941 ft | 365 kts | 229° |
| 2026-05-08 15:15 | 37.16244 | -3.92641 | 36907 ft | 364 kts | 229° |
| 2026-05-08 15:16 | 37.12707 | -3.97175 | 36928 ft | 364 kts | 229° |
| 2026-05-08 15:16 | 37.09165 | -4.01705 | 36938 ft | 364 kts | 229° |
| 2026-05-08 15:17 | 37.05613 | -4.06240 | 36938 ft | 365 kts | 229° |
| 2026-05-08 15:17 | 37.02052 | -4.10779 | 36906 ft | 365 kts | 229° |
| 2026-05-08 15:18 | 36.98495 | -4.15304 | 36947 ft | 366 kts | 229° |
| 2026-05-08 15:18 | 36.94937 | -4.19837 | 36983 ft | 364 kts | 229° |
| 2026-05-08 15:19 | 36.91372 | -4.24366 | 36892 ft | 366 kts | 229° |
| 2026-05-08 15:19 | 36.87796 | -4.28904 | 36920 ft | 367 kts | 229° |
| 2026-05-08 15:20 | 36.84826 | -4.32673 | 36927 ft | 366 kts | 229° |
| 2026-05-08 15:20 | 36.81737 | -4.37672 | 36958 ft | 364 kts | 239° |
| 2026-05-08 15:21 | 36.79505 | -4.43361 | 36951 ft | 367 kts | 248° |
| 2026-05-08 15:21 | 36.77768 | -4.49352 | 36934 ft | 367 kts | 248° |
| 2026-05-08 15:22 | 36.76048 | -4.55327 | 36932 ft | 366 kts | 248° |
| 2026-05-08 15:22 | 36.74319 | -4.61281 | 36940 ft | 365 kts | 248° |
| 2026-05-08 15:23 | 36.72584 | -4.67219 | 36942 ft | 364 kts | 247° |
| 2026-05-08 15:23 | 36.70845 | -4.73153 | 36943 ft | 364 kts | 247° |
| 2026-05-08 15:24 | 36.69102 | -4.79079 | 36934 ft | 364 kts | 247° |
| 2026-05-08 15:24 | 36.67360 | -4.84993 | 36937 ft | 364 kts | 247° |
| 2026-05-08 15:25 | 36.65615 | -4.90905 | 36940 ft | 364 kts | 247° |
| 2026-05-08 15:25 | 36.63861 | -4.96831 | 36933 ft | 366 kts | 248° |
| 2026-05-08 15:26 | 36.62100 | -5.02776 | 36941 ft | 367 kts | 247° |
| 2026-05-08 15:26 | 36.60336 | -5.08710 | 36942 ft | 369 kts | 247° |
| 2026-05-08 15:27 | 36.58557 | -5.14685 | 36931 ft | 368 kts | 247° |
| 2026-05-08 15:27 | 36.56778 | -5.20648 | 36925 ft | 368 kts | 247° |
| 2026-05-08 15:28 | 36.54997 | -5.26604 | 36927 ft | 367 kts | 248° |
| 2026-05-08 15:28 | 36.53219 | -5.32550 | 36932 ft | 366 kts | 247° |
| 2026-05-08 15:29 | 36.51436 | -5.38481 | 36937 ft | 367 kts | 246° |
| 2026-05-08 15:29 | 36.49309 | -5.44216 | 36952 ft | 364 kts | 238° |
| 2026-05-08 15:30 | 36.46724 | -5.49638 | 36924 ft | 365 kts | 238° |
| 2026-05-08 15:30 | 36.44138 | -5.55078 | 36927 ft | 366 kts | 239° |
| 2026-05-08 15:31 | 36.41558 | -5.60520 | 36925 ft | 366 kts | 238° |
| 2026-05-08 15:31 | 36.38978 | -5.65957 | 36911 ft | 365 kts | 238° |
| 2026-05-08 15:32 | 36.36403 | -5.71381 | 36927 ft | 364 kts | 238° |
| 2026-05-08 15:32 | 36.33837 | -5.76779 | 36926 ft | 367 kts | 238° |
| 2026-05-08 15:33 | 36.31244 | -5.82223 | 36898 ft | 366 kts | 238° |
| 2026-05-08 15:33 | 36.28654 | -5.87654 | 36906 ft | 366 kts | 238° |
| 2026-05-08 15:34 | 36.26066 | -5.93071 | 36908 ft | 365 kts | 238° |
| 2026-05-08 15:34 | 36.23411 | -5.98440 | 36895 ft | 365 kts | 233° |
| 2026-05-08 15:35 | 36.20340 | -6.03449 | 36895 ft | 365 kts | 233° |
| 2026-05-08 15:35 | 36.17245 | -6.08444 | 36898 ft | 365 kts | 233° |
| 2026-05-08 15:36 | 36.14159 | -6.13440 | 36912 ft | 365 kts | 232° |
| 2026-05-08 15:36 | 36.11078 | -6.18434 | 36902 ft | 365 kts | 232° |
| 2026-05-08 15:37 | 36.07998 | -6.23421 | 36872 ft | 365 kts | 232° |
| 2026-05-08 15:37 | 36.04921 | -6.28398 | 36900 ft | 365 kts | 232° |
| 2026-05-08 15:38 | 36.01840 | -6.33375 | 36899 ft | 365 kts | 232° |
| 2026-05-08 15:38 | 35.98751 | -6.38358 | 36905 ft | 365 kts | 232° |
| 2026-05-08 15:39 | 35.95660 | -6.43338 | 36899 ft | 366 kts | 232° |
| 2026-05-08 15:39 | 35.92562 | -6.48319 | 36912 ft | 366 kts | 232° |
| 2026-05-08 15:40 | 35.89458 | -6.53308 | 36899 ft | 366 kts | 232° |
| 2026-05-08 15:40 | 35.86360 | -6.58289 | 36901 ft | 366 kts | 232° |
| 2026-05-08 15:41 | 35.83278 | -6.63231 | 36897 ft | 366 kts | 232° |
| 2026-05-08 15:41 | 35.80173 | -6.68198 | 36898 ft | 366 kts | 232° |
| 2026-05-08 15:42 | 35.77066 | -6.73161 | 36901 ft | 366 kts | 232° |
| 2026-05-08 15:42 | 35.73957 | -6.78123 | 36903 ft | 366 kts | 232° |
| 2026-05-08 15:43 | 35.70848 | -6.83078 | 36900 ft | 366 kts | 232° |
| 2026-05-08 15:43 | 35.67735 | -6.88033 | 36912 ft | 366 kts | 232° |
| 2026-05-08 15:44 | 35.64617 | -6.92989 | 36904 ft | 366 kts | 232° |
| 2026-05-08 15:44 | 35.61496 | -6.97942 | 36903 ft | 366 kts | 232° |
| 2026-05-08 15:45 | 35.58374 | -7.02890 | 36903 ft | 366 kts | 232° |
| 2026-05-08 15:45 | 35.55248 | -7.07837 | 36903 ft | 366 kts | 232° |
| 2026-05-08 15:46 | 35.52124 | -7.12774 | 36903 ft | 366 kts | 232° |
| 2026-05-08 15:46 | 35.48995 | -7.17712 | 36903 ft | 367 kts | 232° |
| 2026-05-08 15:47 | 35.45857 | -7.22657 | 36961 ft | 368 kts | 232° |
| 2026-05-08 15:47 | 35.42708 | -7.27612 | 36919 ft | 368 kts | 232° |
| 2026-05-08 15:48 | 35.37997 | -7.35013 | 36906 ft | 367 kts | 231° |
| 2026-05-08 15:49 | 35.34883 | -7.39896 | 36903 ft | 366 kts | 231° |
| 2026-05-08 15:49 | 35.31746 | -7.44808 | 36900 ft | 366 kts | 231° |
| 2026-05-08 15:50 | 35.28606 | -7.49717 | 36902 ft | 366 kts | 231° |
| 2026-05-08 15:50 | 35.25465 | -7.54621 | 36874 ft | 366 kts | 231° |
| 2026-05-08 15:51 | 35.22324 | -7.59520 | 36911 ft | 366 kts | 231° |
| 2026-05-08 15:51 | 35.19171 | -7.64430 | 36916 ft | 368 kts | 231° |
| 2026-05-08 15:52 | 35.16005 | -7.69352 | 36902 ft | 368 kts | 231° |
| 2026-05-08 15:52 | 35.12836 | -7.74273 | 36901 ft | 369 kts | 231° |
| 2026-05-08 15:53 | 35.09660 | -7.79197 | 36905 ft | 369 kts | 231° |
| 2026-05-08 15:53 | 35.06501 | -7.84088 | 36904 ft | 369 kts | 231° |
| 2026-05-08 15:54 | 35.03320 | -7.89007 | 36901 ft | 369 kts | 231° |
| 2026-05-08 15:54 | 35.00136 | -7.93923 | 36901 ft | 369 kts | 231° |
| 2026-05-08 15:55 | 34.96950 | -7.98835 | 36905 ft | 369 kts | 231° |
| 2026-05-08 15:55 | 34.92167 | -8.06198 | 36900 ft | 370 kts | 231° |
| 2026-05-08 15:56 | 34.88970 | -8.11109 | 36903 ft | 370 kts | 231° |
| 2026-05-08 15:56 | 34.85768 | -8.16023 | 36907 ft | 370 kts | 231° |
| 2026-05-08 15:57 | 34.82564 | -8.20933 | 36899 ft | 370 kts | 231° |
| 2026-05-08 15:57 | 34.79356 | -8.25841 | 36904 ft | 371 kts | 231° |
| 2026-05-08 15:58 | 34.76146 | -8.30746 | 36898 ft | 371 kts | 231° |
| 2026-05-08 15:58 | 34.72933 | -8.35648 | 36916 ft | 371 kts | 231° |
| 2026-05-08 15:59 | 34.69721 | -8.40542 | 36874 ft | 369 kts | 231° |
| 2026-05-08 15:59 | 34.66513 | -8.45424 | 36887 ft | 370 kts | 231° |
| 2026-05-08 16:00 | 34.63299 | -8.50309 | 36904 ft | 371 kts | 231° |
| 2026-05-08 16:00 | 34.60075 | -8.55201 | 36902 ft | 371 kts | 231° |
| 2026-05-08 16:01 | 34.56849 | -8.60091 | 36896 ft | 371 kts | 231° |
| 2026-05-08 16:01 | 34.53618 | -8.64981 | 36900 ft | 371 kts | 231° |
| 2026-05-08 16:02 | 34.50386 | -8.69867 | 36893 ft | 371 kts | 231° |
| 2026-05-08 16:02 | 34.47160 | -8.74737 | 36901 ft | 370 kts | 231° |
| 2026-05-08 16:03 | 34.43787 | -8.79441 | 36894 ft | 370 kts | 225° |
| 2026-05-08 16:03 | 34.39790 | -8.83384 | 36891 ft | 371 kts | 221° |
| 2026-05-08 16:04 | 34.35764 | -8.87222 | 36898 ft | 371 kts | 221° |
| 2026-05-08 16:04 | 34.31716 | -8.91093 | 36898 ft | 370 kts | 221° |
| 2026-05-08 16:05 | 34.27707 | -8.94931 | 36902 ft | 366 kts | 221° |
| 2026-05-08 16:05 | 34.23727 | -8.98742 | 36900 ft | 364 kts | 221° |
| 2026-05-08 16:06 | 34.19758 | -9.02539 | 36896 ft | 364 kts | 221° |
| 2026-05-08 16:06 | 34.15793 | -9.06328 | 36906 ft | 364 kts | 221° |
| 2026-05-08 16:07 | 34.11824 | -9.10117 | 36903 ft | 364 kts | 221° |
| 2026-05-08 16:07 | 34.07843 | -9.13912 | 36908 ft | 365 kts | 221° |
| 2026-05-08 16:08 | 34.03845 | -9.17718 | 36903 ft | 367 kts | 221° |
| 2026-05-08 16:08 | 33.99831 | -9.21535 | 36901 ft | 368 kts | 221° |
| 2026-05-08 16:09 | 33.96459 | -9.24738 | 36902 ft | 369 kts | 221° |
| 2026-05-08 16:09 | 33.91747 | -9.29208 | 36908 ft | 373 kts | 221° |
| 2026-05-08 16:10 | 33.88344 | -9.32433 | 36905 ft | 375 kts | 221° |
| 2026-05-08 16:10 | 33.84234 | -9.36321 | 36881 ft | 376 kts | 221° |
| 2026-05-08 16:11 | 33.80123 | -9.40206 | 36899 ft | 376 kts | 221° |
| 2026-05-08 16:11 | 33.76005 | -9.44093 | 36899 ft | 377 kts | 221° |
| 2026-05-08 16:12 | 33.71883 | -9.47978 | 36918 ft | 376 kts | 221° |
| 2026-05-08 16:12 | 33.67778 | -9.51843 | 36908 ft | 374 kts | 221° |
| 2026-05-08 16:13 | 33.63683 | -9.55694 | 36906 ft | 374 kts | 221° |
| 2026-05-08 16:13 | 33.59589 | -9.59540 | 36905 ft | 374 kts | 221° |
| 2026-05-08 16:14 | 33.55497 | -9.63378 | 36906 ft | 373 kts | 221° |
| 2026-05-08 16:14 | 33.51402 | -9.67215 | 36899 ft | 374 kts | 221° |
| 2026-05-08 16:15 | 33.47299 | -9.71055 | 36909 ft | 375 kts | 221° |
| 2026-05-08 16:15 | 33.43187 | -9.74898 | 36915 ft | 375 kts | 221° |
| 2026-05-08 16:16 | 33.39068 | -9.78743 | 36911 ft | 376 kts | 221° |
| 2026-05-08 16:16 | 33.34943 | -9.82589 | 36917 ft | 376 kts | 221° |
| 2026-05-08 16:17 | 33.30810 | -9.86437 | 36920 ft | 377 kts | 221° |
| 2026-05-08 16:17 | 33.26677 | -9.90281 | 36912 ft | 376 kts | 222° |
| 2026-05-08 16:18 | 33.22541 | -9.94123 | 36918 ft | 376 kts | 222° |
| 2026-05-08 16:18 | 33.18403 | -9.97962 | 36918 ft | 377 kts | 222° |
| 2026-05-08 16:19 | 33.14289 | -10.01775 | 36911 ft | 377 kts | 221° |
| 2026-05-08 16:19 | 33.10142 | -10.05613 | 36915 ft | 377 kts | 221° |
| 2026-05-08 16:20 | 33.05997 | -10.09446 | 36906 ft | 377 kts | 221° |
| 2026-05-08 16:20 | 33.01844 | -10.13280 | 36907 ft | 378 kts | 221° |
| 2026-05-08 16:21 | 32.97685 | -10.17112 | 36918 ft | 378 kts | 221° |
| 2026-05-08 16:21 | 32.93526 | -10.20937 | 36922 ft | 378 kts | 222° |
| 2026-05-08 16:22 | 32.89370 | -10.24758 | 36924 ft | 378 kts | 221° |
| 2026-05-08 16:22 | 32.85213 | -10.28575 | 36910 ft | 377 kts | 221° |
| 2026-05-08 16:23 | 32.81054 | -10.32390 | 36920 ft | 377 kts | 221° |
| 2026-05-08 16:23 | 32.76899 | -10.36196 | 36914 ft | 377 kts | 221° |
| 2026-05-08 16:24 | 32.72746 | -10.39997 | 36910 ft | 377 kts | 221° |
| 2026-05-08 16:24 | 32.68593 | -10.43792 | 36907 ft | 377 kts | 222° |
| 2026-05-08 16:25 | 32.64437 | -10.47587 | 36918 ft | 377 kts | 222° |
| 2026-05-08 16:25 | 32.60274 | -10.51383 | 36919 ft | 378 kts | 222° |
| 2026-05-08 16:26 | 32.56102 | -10.55182 | 36920 ft | 378 kts | 222° |
| 2026-05-08 16:26 | 32.51927 | -10.58979 | 36927 ft | 379 kts | 222° |
| 2026-05-08 16:27 | 32.47774 | -10.62752 | 36909 ft | 379 kts | 222° |
| 2026-05-08 16:27 | 32.43588 | -10.66550 | 36912 ft | 379 kts | 222° |
| 2026-05-08 16:28 | 32.39407 | -10.70339 | 36911 ft | 379 kts | 222° |
| 2026-05-08 16:28 | 32.35217 | -10.74133 | 36923 ft | 379 kts | 222° |
| 2026-05-08 16:29 | 32.31023 | -10.77925 | 36920 ft | 380 kts | 222° |
| 2026-05-08 16:29 | 32.26817 | -10.81724 | 36921 ft | 381 kts | 222° |
| 2026-05-08 16:30 | 32.22608 | -10.85520 | 36927 ft | 381 kts | 222° |
| 2026-05-08 16:30 | 32.18396 | -10.89315 | 36925 ft | 381 kts | 222° |
| 2026-05-08 16:31 | 32.14180 | -10.93108 | 36876 ft | 381 kts | 222° |
| 2026-05-08 16:31 | 32.09967 | -10.96894 | 36922 ft | 381 kts | 222° |
| 2026-05-08 16:32 | 32.05745 | -11.00685 | 36931 ft | 382 kts | 222° |
| 2026-05-08 16:32 | 32.01519 | -11.04474 | 36929 ft | 382 kts | 222° |
| 2026-05-08 16:33 | 31.97289 | -11.08262 | 36929 ft | 382 kts | 222° |
| 2026-05-08 16:33 | 31.93055 | -11.12050 | 36929 ft | 382 kts | 222° |
| 2026-05-08 16:34 | 31.88850 | -11.15808 | 36932 ft | 382 kts | 222° |
| 2026-05-08 16:34 | 31.84614 | -11.19588 | 36881 ft | 382 kts | 222° |
| 2026-05-08 16:35 | 31.80379 | -11.23365 | 36923 ft | 382 kts | 222° |
| 2026-05-08 16:35 | 31.76137 | -11.27142 | 36936 ft | 383 kts | 222° |
| 2026-05-08 16:36 | 31.71889 | -11.30924 | 36932 ft | 383 kts | 222° |
| 2026-05-08 16:36 | 31.67638 | -11.34710 | 36939 ft | 384 kts | 223° |
| 2026-05-08 16:37 | 31.63375 | -11.38505 | 36933 ft | 385 kts | 223° |
| 2026-05-08 16:37 | 31.59108 | -11.42299 | 36933 ft | 385 kts | 223° |
| 2026-05-08 16:38 | 31.54833 | -11.46094 | 36891 ft | 385 kts | 223° |
| 2026-05-08 16:38 | 31.50561 | -11.49882 | 36936 ft | 386 kts | 223° |
| 2026-05-08 16:39 | 31.46278 | -11.53676 | 36935 ft | 386 kts | 223° |
| 2026-05-08 16:39 | 31.41989 | -11.57472 | 36948 ft | 387 kts | 223° |
| 2026-05-08 16:40 | 31.37691 | -11.61269 | 36935 ft | 387 kts | 223° |
| 2026-05-08 16:40 | 31.33390 | -11.65066 | 36942 ft | 387 kts | 223° |
| 2026-05-08 16:41 | 31.29089 | -11.68858 | 36944 ft | 387 kts | 223° |
| 2026-05-08 16:42 | 31.22642 | -11.74533 | 36943 ft | 387 kts | 223° |
| 2026-05-08 16:42 | 31.18347 | -11.78310 | 36947 ft | 390 kts | 223° |
| 2026-05-08 16:43 | 31.14001 | -11.82127 | 36950 ft | 392 kts | 223° |
| 2026-05-08 16:43 | 31.09651 | -11.85941 | 36940 ft | 390 kts | 223° |
| 2026-05-08 16:44 | 31.05315 | -11.89738 | 36949 ft | 389 kts | 223° |
| 2026-05-08 16:44 | 31.00982 | -11.93530 | 36950 ft | 389 kts | 223° |
| 2026-05-08 16:45 | 30.96651 | -11.97315 | 36948 ft | 389 kts | 223° |
| 2026-05-08 16:45 | 30.92316 | -12.01099 | 36945 ft | 390 kts | 223° |
| 2026-05-08 16:46 | 30.87967 | -12.04892 | 36963 ft | 391 kts | 223° |
| 2026-05-08 16:46 | 30.83608 | -12.08689 | 36956 ft | 392 kts | 223° |
| 2026-05-08 16:47 | 30.79236 | -12.12492 | 36953 ft | 393 kts | 223° |
| 2026-05-08 16:47 | 30.74852 | -12.16301 | 36954 ft | 393 kts | 223° |
| 2026-05-08 16:48 | 30.70467 | -12.20107 | 36953 ft | 393 kts | 223° |
| 2026-05-08 16:48 | 30.66082 | -12.23909 | 36906 ft | 394 kts | 223° |
| 2026-05-08 16:49 | 30.61688 | -12.27715 | 36939 ft | 394 kts | 223° |
| 2026-05-08 16:49 | 30.57283 | -12.31526 | 36961 ft | 395 kts | 223° |
| 2026-05-08 16:50 | 30.52866 | -12.35343 | 36957 ft | 396 kts | 223° |
| 2026-05-08 16:50 | 30.48435 | -12.39162 | 36953 ft | 397 kts | 223° |
| 2026-05-08 16:51 | 30.43996 | -12.42972 | 36961 ft | 397 kts | 223° |
| 2026-05-08 16:51 | 30.39572 | -12.46766 | 36954 ft | 395 kts | 223° |
| 2026-05-08 16:52 | 30.35160 | -12.50547 | 36947 ft | 394 kts | 223° |
| 2026-05-08 16:52 | 30.30784 | -12.54294 | 36954 ft | 394 kts | 224° |
| 2026-05-08 16:53 | 30.24179 | -12.59944 | 36962 ft | 394 kts | 224° |
| 2026-05-08 16:53 | 30.19771 | -12.63708 | 36962 ft | 394 kts | 224° |
| 2026-05-08 16:54 | 30.15361 | -12.67471 | 36961 ft | 394 kts | 224° |
| 2026-05-08 16:54 | 30.10951 | -12.71229 | 36967 ft | 394 kts | 223° |
| 2026-05-08 16:55 | 30.06641 | -12.75107 | 36965 ft | 392 kts | 226° |
| 2026-05-08 16:55 | 30.02444 | -12.79111 | 36963 ft | 392 kts | 226° |
| 2026-05-08 16:56 | 29.98240 | -12.83115 | 36968 ft | 392 kts | 226° |
| 2026-05-08 16:56 | 29.94023 | -12.87097 | 36967 ft | 392 kts | 226° |
| 2026-05-08 16:57 | 29.90510 | -12.90400 | 36967 ft | 392 kts | 226° |
| 2026-05-08 16:57 | 29.86276 | -12.94371 | 36968 ft | 392 kts | 226° |
| 2026-05-08 16:58 | 29.82039 | -12.98339 | 36967 ft | 392 kts | 226° |
| 2026-05-08 16:58 | 29.77802 | -13.02303 | 36966 ft | 392 kts | 226° |
| 2026-05-08 16:59 | 29.73565 | -13.06262 | 36928 ft | 392 kts | 226° |
| 2026-05-08 16:59 | 29.69326 | -13.10219 | 36962 ft | 393 kts | 226° |
| 2026-05-08 17:00 | 29.65080 | -13.14179 | 36982 ft | 394 kts | 226° |
| 2026-05-08 17:00 | 29.60809 | -13.18158 | 36984 ft | 396 kts | 226° |
| 2026-05-08 17:01 | 29.56524 | -13.22143 | 36972 ft | 396 kts | 226° |
| 2026-05-08 17:01 | 29.52249 | -13.26114 | 36976 ft | 395 kts | 226° |
| 2026-05-08 17:02 | 29.48004 | -13.30054 | 36978 ft | 395 kts | 226° |
| 2026-05-08 17:02 | 29.43736 | -13.34012 | 36918 ft | 395 kts | 226° |
| 2026-05-08 17:03 | 29.39461 | -13.37971 | 36968 ft | 395 kts | 226° |
| 2026-05-08 17:03 | 29.35181 | -13.41931 | 36981 ft | 396 kts | 226° |
| 2026-05-08 17:04 | 29.30890 | -13.45897 | 36990 ft | 397 kts | 226° |
| 2026-05-08 17:04 | 29.26587 | -13.49869 | 36985 ft | 397 kts | 226° |
| 2026-05-08 17:05 | 29.22273 | -13.53847 | 36972 ft | 398 kts | 226° |
| 2026-05-08 17:05 | 29.17963 | -13.57815 | 36970 ft | 397 kts | 226° |
| 2026-05-08 17:06 | 29.13654 | -13.61778 | 36976 ft | 397 kts | 226° |
| 2026-05-08 17:06 | 29.09353 | -13.65731 | 36967 ft | 396 kts | 226° |
| 2026-05-08 17:07 | 29.05046 | -13.69685 | 36968 ft | 397 kts | 226° |
| 2026-05-08 17:07 | 29.00735 | -13.73638 | 36974 ft | 398 kts | 226° |
| 2026-05-08 17:08 | 28.96407 | -13.77603 | 36969 ft | 399 kts | 226° |
| 2026-05-08 17:08 | 28.92075 | -13.81567 | 36978 ft | 400 kts | 226° |
| 2026-05-08 17:09 | 28.87734 | -13.85534 | 36970 ft | 400 kts | 226° |
| 2026-05-08 17:09 | 28.83389 | -13.89498 | 36986 ft | 399 kts | 227° |
| 2026-05-08 17:10 | 28.79066 | -13.93439 | 36955 ft | 398 kts | 227° |
| 2026-05-08 17:10 | 28.74742 | -13.97379 | 36982 ft | 398 kts | 227° |
| 2026-05-08 17:11 | 28.70408 | -14.01325 | 36993 ft | 399 kts | 227° |
| 2026-05-08 17:11 | 28.66061 | -14.05276 | 36984 ft | 400 kts | 227° |
| 2026-05-08 17:12 | 28.61708 | -14.09227 | 36986 ft | 400 kts | 227° |
| 2026-05-08 17:12 | 28.57353 | -14.13177 | 36983 ft | 401 kts | 227° |
| 2026-05-08 17:13 | 28.52996 | -14.17124 | 36981 ft | 400 kts | 227° |
| 2026-05-08 17:13 | 28.48679 | -14.21029 | 36934 ft | 399 kts | 227° |
| 2026-05-08 17:14 | 28.44339 | -14.24953 | 36981 ft | 399 kts | 227° |
| 2026-05-08 17:14 | 28.39991 | -14.28880 | 36994 ft | 400 kts | 227° |
| 2026-05-08 17:15 | 28.35637 | -14.32809 | 36993 ft | 400 kts | 227° |
| 2026-05-08 17:15 | 28.31273 | -14.36741 | 36988 ft | 401 kts | 227° |
| 2026-05-08 17:16 | 28.26904 | -14.40673 | 36993 ft | 401 kts | 227° |
| 2026-05-08 17:16 | 28.22530 | -14.44606 | 36705 ft | 399 kts | 227° |
| 2026-05-08 17:17 | 28.20375 | -14.46537 | 36336 ft | 391 kts | 227° |
| 2026-05-08 17:17 | 28.18267 | -14.48423 | 36104 ft | 381 kts | 227° |
| 2026-05-08 17:17 | 28.16209 | -14.50267 | 35789 ft | 375 kts | 227° |
| 2026-05-08 17:17 | 28.14148 | -14.52124 | 35569 ft | 383 kts | 227° |
| 2026-05-08 17:18 | 28.12038 | -14.54028 | 35341 ft | 393 kts | 227° |
| 2026-05-08 17:18 | 28.09873 | -14.55974 | 35116 ft | 400 kts | 226° |
| 2026-05-08 17:18 | 28.07690 | -14.57927 | 34891 ft | 400 kts | 226° |
| 2026-05-08 17:18 | 28.05503 | -14.59880 | 34659 ft | 400 kts | 226° |
| 2026-05-08 17:19 | 28.03358 | -14.61868 | 34418 ft | 395 kts | 231° |
| 2026-05-08 17:19 | 28.01615 | -14.64201 | 34132 ft | 384 kts | 240° |
| 2026-05-08 17:19 | 28.00197 | -14.66744 | 33390 ft | 381 kts | 245° |
| 2026-05-08 17:19 | 27.99047 | -14.69426 | 32639 ft | 379 kts | 252° |
| 2026-05-08 17:20 | 27.98308 | -14.72279 | 31919 ft | 377 kts | 257° |
| 2026-05-08 17:20 | 27.97690 | -14.75166 | 31165 ft | 379 kts | 258° |
| 2026-05-08 17:20 | 27.97078 | -14.78071 | 30401 ft | 381 kts | 258° |
| 2026-05-08 17:20 | 27.96468 | -14.80961 | 29507 ft | 384 kts | 258° |
| 2026-05-08 17:21 | 27.95841 | -14.83907 | 28589 ft | 386 kts | 257° |
| 2026-05-08 17:21 | 27.95198 | -14.86905 | 27656 ft | 388 kts | 257° |
| 2026-05-08 17:21 | 27.94556 | -14.89874 | 26725 ft | 390 kts | 257° |
| 2026-05-08 17:21 | 27.93907 | -14.92868 | 25875 ft | 391 kts | 257° |
| 2026-05-08 17:22 | 27.93261 | -14.95839 | 25159 ft | 388 kts | 257° |
| 2026-05-08 17:22 | 27.92617 | -14.98792 | 24490 ft | 385 kts | 257° |
| 2026-05-08 17:22 | 27.91986 | -15.01684 | 23825 ft | 384 kts | 257° |
| 2026-05-08 17:22 | 27.91347 | -15.04607 | 23066 ft | 382 kts | 257° |
| 2026-05-08 17:23 | 27.90705 | -15.07547 | 22341 ft | 378 kts | 257° |
| 2026-05-08 17:23 | 27.90086 | -15.10374 | 21668 ft | 375 kts | 257° |
| 2026-05-08 17:23 | 27.89462 | -15.13222 | 21006 ft | 371 kts | 257° |
| 2026-05-08 17:23 | 27.88843 | -15.16044 | 20354 ft | 368 kts | 257° |
| 2026-05-08 17:24 | 27.88231 | -15.18836 | 19738 ft | 365 kts | 257° |
| 2026-05-08 17:24 | 27.87631 | -15.21565 | 19548 ft | 352 kts | 257° |
| 2026-05-08 17:24 | 27.87050 | -15.24202 | 19398 ft | 340 kts | 257° |
| 2026-05-08 17:24 | 27.86490 | -15.26750 | 19241 ft | 330 kts | 257° |
| 2026-05-08 17:25 | 27.85937 | -15.29259 | 19105 ft | 329 kts | 257° |
| 2026-05-08 17:25 | 27.85389 | -15.31747 | 18962 ft | 322 kts | 257° |
| 2026-05-08 17:25 | 27.84857 | -15.34159 | 18819 ft | 311 kts | 257° |
| 2026-05-08 17:25 | 27.84342 | -15.36490 | 18685 ft | 301 kts | 257° |
| 2026-05-08 17:26 | 27.83843 | -15.38746 | 18560 ft | 291 kts | 257° |
| 2026-05-08 17:26 | 27.83359 | -15.40931 | 18431 ft | 282 kts | 257° |
| 2026-05-08 17:26 | 27.83121 | -15.43088 | 18281 ft | 274 kts | 270° |
| 2026-05-08 17:26 | 27.83405 | -15.45219 | 17928 ft | 276 kts | 281° |
| 2026-05-08 17:27 | 27.83976 | -15.47291 | 17593 ft | 276 kts | 284° |
| 2026-05-08 17:27 | 27.84590 | -15.49337 | 17256 ft | 275 kts | 284° |
| 2026-05-08 17:27 | 27.85207 | -15.51377 | 16934 ft | 274 kts | 284° |
| 2026-05-08 17:27 | 27.85817 | -15.53406 | 16580 ft | 272 kts | 284° |
| 2026-05-08 17:28 | 27.86423 | -15.55430 | 16280 ft | 271 kts | 284° |
| 2026-05-08 17:28 | 27.87023 | -15.57449 | 15920 ft | 271 kts | 283° |
| 2026-05-08 17:28 | 27.87611 | -15.59462 | 15608 ft | 268 kts | 284° |
| 2026-05-08 17:28 | 27.88205 | -15.61457 | 15277 ft | 269 kts | 285° |
| 2026-05-08 17:29 | 27.88795 | -15.63468 | 14954 ft | 270 kts | 285° |
| 2026-05-08 17:29 | 27.89386 | -15.65486 | 14639 ft | 271 kts | 285° |
| 2026-05-08 17:29 | 27.89982 | -15.67522 | 14292 ft | 273 kts | 284° |
| 2026-05-08 17:29 | 27.90536 | -15.69538 | 13986 ft | 271 kts | 284° |
| 2026-05-08 17:30 | 27.91139 | -15.71594 | 13585 ft | 273 kts | 285° |
| 2026-05-08 17:30 | 27.91747 | -15.73622 | 13261 ft | 273 kts | 285° |
| 2026-05-08 17:30 | 27.92349 | -15.75652 | 12896 ft | 271 kts | 285° |
| 2026-05-08 17:30 | 27.92953 | -15.77657 | 12557 ft | 267 kts | 287° |
| 2026-05-08 17:31 | 27.93544 | -15.79596 | 12276 ft | 264 kts | 284° |
| 2026-05-08 17:31 | 27.94111 | -15.81576 | 12006 ft | 260 kts | 284° |
| 2026-05-08 17:31 | 27.94664 | -15.83528 | 11677 ft | 261 kts | 285° |
| 2026-05-08 17:31 | 27.95215 | -15.85450 | 11373 ft | 260 kts | 285° |
| 2026-05-08 17:32 | 27.95777 | -15.87394 | 11064 ft | 260 kts | 285° |
| 2026-05-08 17:32 | 27.96339 | -15.89331 | 10764 ft | 259 kts | 285° |
| 2026-05-08 17:32 | 27.96898 | -15.91258 | 10560 ft | 254 kts | 285° |
| 2026-05-08 17:32 | 27.97443 | -15.93133 | 10433 ft | 248 kts | 285° |
| 2026-05-08 17:33 | 27.97972 | -15.94956 | 10318 ft | 240 kts | 285° |
| 2026-05-08 17:33 | 27.98484 | -15.96721 | 10211 ft | 232 kts | 285° |
| 2026-05-08 17:33 | 27.98981 | -15.98432 | 10114 ft | 225 kts | 285° |
| 2026-05-08 17:33 | 27.99379 | -16.00100 | 10002 ft | 215 kts | 272° |
| 2026-05-08 17:34 | 27.99231 | -16.01768 | 9798 ft | 215 kts | 256° |
| 2026-05-08 17:34 | 27.98716 | -16.03380 | 9558 ft | 222 kts | 250° |
| 2026-05-08 17:34 | 27.98098 | -16.05007 | 9327 ft | 228 kts | 249° |
| 2026-05-08 17:34 | 27.97460 | -16.06668 | 9045 ft | 231 kts | 249° |
| 2026-05-08 17:35 | 27.96824 | -16.08336 | 8764 ft | 231 kts | 249° |
| 2026-05-08 17:35 | 27.96197 | -16.09995 | 8489 ft | 230 kts | 249° |
| 2026-05-08 17:35 | 27.95572 | -16.11663 | 8251 ft | 230 kts | 250° |
| 2026-05-08 17:35 | 27.94947 | -16.13336 | 7975 ft | 230 kts | 250° |
| 2026-05-08 17:36 | 27.94327 | -16.14997 | 7716 ft | 229 kts | 250° |
| 2026-05-08 17:36 | 27.93711 | -16.16650 | 7456 ft | 228 kts | 250° |
| 2026-05-08 17:36 | 27.93093 | -16.18308 | 7206 ft | 228 kts | 250° |
| 2026-05-08 17:36 | 27.92478 | -16.19960 | 6947 ft | 228 kts | 250° |
| 2026-05-08 17:37 | 27.91861 | -16.21614 | 6677 ft | 229 kts | 250° |
| 2026-05-08 17:37 | 27.91243 | -16.23272 | 6430 ft | 229 kts | 251° |
| 2026-05-08 17:37 | 27.90952 | -16.25006 | 6139 ft | 225 kts | 278° |
| 2026-05-08 17:37 | 27.91464 | -16.26640 | 5938 ft | 221 kts | 302° |
| 2026-05-08 17:38 | 27.92516 | -16.27889 | 5712 ft | 222 kts | 324° |
| 2026-05-08 17:38 | 27.93897 | -16.28676 | 5526 ft | 225 kts | 335° |
| 2026-05-08 17:38 | 27.95346 | -16.29350 | 5331 ft | 226 kts | 335° |
| 2026-05-08 17:38 | 27.96792 | -16.30016 | 5127 ft | 228 kts | 334° |
| 2026-05-08 17:39 | 27.98307 | -16.30726 | 4943 ft | 249 kts | 336° |
| 2026-05-08 17:39 | 27.99972 | -16.31509 | 4693 ft | 265 kts | 337° |
| 2026-05-08 17:39 | 28.01692 | -16.32316 | 4447 ft | 268 kts | 336° |
| 2026-05-08 17:39 | 28.03404 | -16.33124 | 4197 ft | 265 kts | 336° |
| 2026-05-08 17:40 | 28.05099 | -16.33928 | 3947 ft | 263 kts | 336° |
| 2026-05-08 17:40 | 28.06773 | -16.34723 | 3716 ft | 260 kts | 336° |
| 2026-05-08 17:40 | 28.08423 | -16.35500 | 3485 ft | 251 kts | 334° |
| 2026-05-08 17:40 | 28.09976 | -16.36310 | 3239 ft | 240 kts | 323° |
| 2026-05-08 17:41 | 28.10937 | -16.37742 | 3048 ft | 229 kts | 285° |
| 2026-05-08 17:41 | 28.10819 | -16.39463 | 2973 ft | 218 kts | 248° |
| 2026-05-08 17:41 | 28.10160 | -16.40960 | 2846 ft | 206 kts | 249° |
| 2026-05-08 17:41 | 28.09619 | -16.42400 | 2653 ft | 199 kts | 251° |
| 2026-05-08 17:42 | 28.09107 | -16.43855 | 2394 ft | 194 kts | 251° |
| 2026-05-08 17:42 | 28.08629 | -16.45227 | 2140 ft | 184 kts | 251° |
| 2026-05-08 17:42 | 28.08179 | -16.46518 | 1917 ft | 170 kts | 251° |
| 2026-05-08 17:42 | 28.07764 | -16.47708 | 1711 ft | 154 kts | 250° |
| 2026-05-08 17:43 | 28.07390 | -16.48781 | 1487 ft | 139 kts | 250° |
| 2026-05-08 17:43 | 28.07049 | -16.49762 | 1320 ft | 129 kts | 251° |
| 2026-05-08 17:43 | 28.06717 | -16.50718 | 1158 ft | 132 kts | 250° |
| 2026-05-08 17:43 | 28.06371 | -16.51714 | 1003 ft | 138 kts | 250° |
| 2026-05-08 17:44 | 28.06011 | -16.52742 | 807 ft | 142 kts | 250° |
| 2026-05-08 17:44 | 28.05660 | -16.53752 | 627 ft | 135 kts | 253° |
| 2026-05-08 17:44 | 28.05429 | -16.54410 | 488 ft | 135 kts | 254° |
| 2026-05-08 17:44 | 28.05093 | -16.55394 | 337 ft | 136 kts | 253° |
| 2026-05-08 17:45 | 28.04744 | -16.56401 | 215 ft | 134 kts | 253° |
| 2026-05-08 17:45 | 28.04435 | -16.57289 | 194 ft | 105 kts | 249° |
| 2026-05-08 17:45 | 28.04210 | -16.57930 | 196 ft | 70 kts | 249° |
| 2026-05-08 17:45 | 28.04064 | -16.58348 | 196 ft | 50 kts | 249° |
| 2026-05-08 17:46 | 28.04000 | -16.58681 | 201 ft | 35 kts | 279° |
| 2026-05-08 17:46 | 28.04072 | -16.58794 | 211 ft | 9 kts | 357° |
| 2026-05-08 17:46 | 28.04108 | -16.58768 | 210 ft | 6 kts | 62° |
| 2026-05-08 17:46 | 28.04125 | -16.58721 | 217 ft | 6 kts | 69° |
| 2026-05-08 17:47 | 28.04142 | -16.58675 | 218 ft | 6 kts | 67° |
| 2026-05-08 17:47 | 28.04158 | -16.58630 | 221 ft | 6 kts | 68° |
| 2026-05-08 17:47 | 28.04175 | -16.58583 | 221 ft | 8 kts | 68° |
| 2026-05-08 17:47 | 28.04200 | -16.58486 | 222 ft | 18 kts | 70° |
| 2026-05-08 17:48 | 28.04256 | -16.58326 | 222 ft | 26 kts | 68° |
| 2026-05-08 17:48 | 28.04331 | -16.58108 | 222 ft | 32 kts | 68° |
| 2026-05-08 17:48 | 28.04395 | -16.57925 | 222 ft | 16 kts | 69° |
| 2026-05-08 17:48 | 28.04451 | -16.57906 | 222 ft | 9 kts | 345° |
| 2026-05-08 17:49 | 28.04511 | -16.57928 | 223 ft | 9 kts | 359° |
| 2026-05-08 17:49 | 28.04552 | -16.57879 | 223 ft | 11 kts | 70° |
| 2026-05-08 17:49 | 28.04585 | -16.57786 | 224 ft | 15 kts | 69° |
| 2026-05-08 17:49 | 28.04628 | -16.57661 | 223 ft | 18 kts | 69° |
| 2026-05-08 17:50 | 28.04674 | -16.57531 | 223 ft | 17 kts | 67° |
| 2026-05-08 17:50 | 28.04720 | -16.57407 | 224 ft | 17 kts | 69° |
| 2026-05-08 17:50 | 28.04735 | -16.57365 | 224 ft | 0 kts | 68° |
| 2026-05-08 17:50 | 28.04737 | -16.57358 | 225 ft | 3 kts | 68° |
| 2026-05-08 17:51 | 28.04755 | -16.57314 | 225 ft | 9 kts | 47° |
| 2026-05-08 17:51 | 28.04802 | -16.57325 | 225 ft | 6 kts | 338° |
| 2026-05-08 17:51 | 28.04829 | -16.57337 | 226 ft | 2 kts | 338° |
| 2026-05-08 17:51 | 28.04830 | -16.57338 | 226 ft | 0 kts | 338° |